createdAt,value
2023-05-05T00:00:02.107Z,75.16
2023-05-05T00:01:02.374Z,75.37
2023-05-05T00:02:02.071Z,75.37
2023-05-05T00:03:02.123Z,75.37
2023-05-05T00:04:02.034Z,75.46
2023-05-05T00:05:02.066Z,75.60
2023-05-05T00:06:01.955Z,75.81
2023-05-05T00:07:02.096Z,76.11
2023-05-05T00:08:01.932Z,76.52
2023-05-05T00:09:02.095Z,76.86
2023-05-05T00:10:01.954Z,77.06
2023-05-05T00:11:02.013Z,77.98
2023-05-05T00:12:01.915Z,78.08
2023-05-05T00:13:02.073Z,77.17
2023-05-05T00:14:01.844Z,77.17
2023-05-05T00:15:01.921Z,77.40
2023-05-05T00:16:01.825Z,77.40
2023-05-05T00:17:02.030Z,77.40
2023-05-05T00:18:02.003Z,77.30
2023-05-05T00:19:01.923Z,77.51
2023-05-05T00:20:01.808Z,77.51
2023-05-05T00:21:01.872Z,77.71
2023-05-05T00:22:01.755Z,77.91
2023-05-05T00:23:01.819Z,78.02
2023-05-05T00:24:01.753Z,78.42
2023-05-05T00:25:01.836Z,78.66
2023-05-05T00:26:01.724Z,78.77
2023-05-05T00:27:01.851Z,78.87
2023-05-05T00:28:01.696Z,79.38
2023-05-05T00:29:01.758Z,79.27
2023-05-05T00:30:01.704Z,79.58
2023-05-05T00:31:01.905Z,79.62
2023-05-05T00:32:01.628Z,79.82
2023-05-05T00:33:01.995Z,79.93
2023-05-05T00:34:01.626Z,79.21
2023-05-05T00:35:01.704Z,79.93
2023-05-05T00:36:01.579Z,79.68
2023-05-05T00:37:01.584Z,79.58
2023-05-05T00:38:01.559Z,79.48
2023-05-05T00:39:01.601Z,80.50
2023-05-05T00:40:01.564Z,80.40
2023-05-05T00:41:01.597Z,80.19
2023-05-05T00:42:01.506Z,79.58
2023-05-05T00:43:01.511Z,79.27
2023-05-05T00:44:01.482Z,79.27
2023-05-05T00:45:01.530Z,79.48
2023-05-05T00:46:01.482Z,79.79
2023-05-05T00:47:01.543Z,79.07
2023-05-05T00:48:01.577Z,79.48
2023-05-05T00:49:01.590Z,79.07
2023-05-05T00:50:01.467Z,79.24
2023-05-05T00:51:01.597Z,79.34
2023-05-05T00:52:01.372Z,79.95
2023-05-05T00:53:01.511Z,80.66
2023-05-05T00:54:01.349Z,80.16
2023-05-05T00:55:01.542Z,80.05
2023-05-05T00:56:01.357Z,80.66
2023-05-05T00:57:01.536Z,80.46
2023-05-05T00:58:01.292Z,80.05
2023-05-05T00:59:01.317Z,79.44
2023-05-05T01:00:01.306Z,79.75
2023-05-05T01:01:01.380Z,79.34
2023-05-05T01:02:01.274Z,79.34
2023-05-05T01:03:01.424Z,79.34
2023-05-05T01:04:01.345Z,79.75
2023-05-05T01:05:01.254Z,79.54
2023-05-05T01:06:01.223Z,79.20
2023-05-05T01:07:01.270Z,79.24
2023-05-05T01:08:01.195Z,80.32
2023-05-05T01:09:01.180Z,79.30
2023-05-05T01:10:17.905Z,79.41
2023-05-05T01:11:01.107Z,79.41
2023-05-05T01:12:01.222Z,79.71
2023-05-05T01:13:01.149Z,79.81
2023-05-05T01:14:01.117Z,79.41
2023-05-05T01:15:01.066Z,79.30
2023-05-05T01:16:01.160Z,79.41
2023-05-05T01:17:01.025Z,79.10
2023-05-05T01:18:01.257Z,78.80
2023-05-05T01:19:01.008Z,78.69
2023-05-05T01:20:01.161Z,78.89
2023-05-05T01:21:00.986Z,80.73
2023-05-05T01:22:01.191Z,80.52
2023-05-05T01:23:01.041Z,79.61
2023-05-05T01:24:01.052Z,79.71
2023-05-05T01:25:00.946Z,79.30
2023-05-05T01:26:00.999Z,79.30
2023-05-05T01:27:00.897Z,79.30
2023-05-05T01:28:01.040Z,79.30
2023-05-05T01:29:00.916Z,79.34
2023-05-05T01:30:01.057Z,79.24
2023-05-05T01:31:00.872Z,78.93
2023-05-05T01:32:01.167Z,78.73
2023-05-05T01:33:01.043Z,78.63
2023-05-05T01:34:00.850Z,78.83
2023-05-05T01:35:00.883Z,78.53
2023-05-05T01:36:00.821Z,78.53
2023-05-05T01:37:00.860Z,78.63
2023-05-05T01:38:00.874Z,79.24
2023-05-05T01:39:00.731Z,79.24
2023-05-05T01:40:00.936Z,78.93
2023-05-05T01:41:00.743Z,78.63
2023-05-05T01:42:00.908Z,78.83
2023-05-05T01:43:00.696Z,78.83
2023-05-05T01:44:00.973Z,79.34
2023-05-05T01:45:00.727Z,79.24
2023-05-05T01:46:00.836Z,79.85
2023-05-05T01:47:00.675Z,79.44
2023-05-05T01:48:00.751Z,79.85
2023-05-05T01:49:00.622Z,80.56
2023-05-05T01:50:00.773Z,80.05
2023-05-05T01:51:00.595Z,80.05
2023-05-05T01:52:00.721Z,79.75
2023-05-05T01:53:00.562Z,79.85
2023-05-05T01:54:00.688Z,79.95
2023-05-05T01:55:00.579Z,79.44
2023-05-05T01:56:00.809Z,79.64
2023-05-05T01:57:01.128Z,79.85
2023-05-05T01:58:00.635Z,79.54
2023-05-05T01:59:00.613Z,79.75
2023-05-05T02:00:00.514Z,79.54
2023-05-05T02:01:00.700Z,79.79
2023-05-05T02:02:00.630Z,80.09
2023-05-05T02:03:00.684Z,80.09
2023-05-05T02:04:00.651Z,79.79
2023-05-05T02:05:00.422Z,79.79
2023-05-05T02:06:00.549Z,79.79
2023-05-05T02:07:00.391Z,79.89
2023-05-05T02:08:00.512Z,79.68
2023-05-05T02:09:00.394Z,79.68
2023-05-05T02:10:00.477Z,80.19
2023-05-05T02:11:00.383Z,80.43
2023-05-05T02:12:00.509Z,80.94
2023-05-05T02:13:00.432Z,81.45
2023-05-05T02:14:00.594Z,81.56
2023-05-05T02:15:00.315Z,81.35
2023-05-05T02:16:00.532Z,81.66
2023-05-05T02:17:00.299Z,81.86
2023-05-05T02:18:00.421Z,82.07
2023-05-05T02:19:00.264Z,82.07
2023-05-05T02:20:00.382Z,82.10
2023-05-05T02:21:00.256Z,82.31
2023-05-05T02:22:00.368Z,82.61
2023-05-05T02:23:00.212Z,83.02
2023-05-05T02:24:00.367Z,83.33
2023-05-05T02:25:00.342Z,83.53
2023-05-05T02:26:00.146Z,83.63
2023-05-05T02:27:00.304Z,83.53
2023-05-05T02:28:00.129Z,84.04
2023-05-05T02:29:00.322Z,84.18
2023-05-05T02:30:00.351Z,84.49
2023-05-05T02:31:00.176Z,84.49
2023-05-05T02:32:00.227Z,84.39
2023-05-05T02:33:00.160Z,84.39
2023-05-05T02:34:00.137Z,84.18
2023-05-05T02:35:00.282Z,84.49
2023-05-05T02:36:00.017Z,84.28
2023-05-05T02:37:00.334Z,84.39
2023-05-05T02:38:00.000Z,84.18
2023-05-05T02:39:00.086Z,84.08
2023-05-05T02:39:59.988Z,83.87
2023-05-05T02:41:00.148Z,84.18
2023-05-05T02:41:59.966Z,83.78
2023-05-05T02:43:00.243Z,83.87
2023-05-05T02:43:59.914Z,84.18
2023-05-05T02:45:00.042Z,84.39
2023-05-05T02:45:59.938Z,84.49
2023-05-05T02:47:00.050Z,84.49
2023-05-05T02:47:59.894Z,84.49
2023-05-05T02:49:00.062Z,84.59
2023-05-05T02:49:59.843Z,84.69
2023-05-05T02:51:00.076Z,84.39
2023-05-05T02:51:59.865Z,84.90
2023-05-05T02:53:00.045Z,84.69
2023-05-05T02:53:59.793Z,84.90
2023-05-05T02:54:59.898Z,84.80
2023-05-05T02:55:59.898Z,84.90
2023-05-05T02:56:59.767Z,84.90
2023-05-05T02:57:59.995Z,84.80
2023-05-05T02:58:59.772Z,84.59
2023-05-05T02:59:59.803Z,84.80
2023-05-05T03:00:59.840Z,84.80
2023-05-05T03:01:59.702Z,84.80
2023-05-05T03:02:59.976Z,84.90
2023-05-05T03:03:59.702Z,85.00
2023-05-05T03:04:59.754Z,85.10
2023-05-05T03:05:59.623Z,84.80
2023-05-05T03:06:59.762Z,84.39
2023-05-05T03:07:59.635Z,84.39
2023-05-05T03:08:59.828Z,84.18
2023-05-05T03:09:59.588Z,83.98
2023-05-05T03:10:59.823Z,84.18
2023-05-05T03:11:59.565Z,84.28
2023-05-05T03:12:59.742Z,84.08
2023-05-05T03:13:59.552Z,84.18
2023-05-05T03:14:59.626Z,84.39
2023-05-05T03:15:59.520Z,84.49
2023-05-05T03:16:59.631Z,84.59
2023-05-05T03:17:59.550Z,84.80
2023-05-05T03:18:59.710Z,85.41
2023-05-05T03:20:00.521Z,85.10
2023-05-05T03:20:59.682Z,84.90
2023-05-05T03:21:59.659Z,85.00
2023-05-05T03:22:59.445Z,84.80
2023-05-05T03:23:59.811Z,85.00
2023-05-05T03:24:59.488Z,85.30
2023-05-05T03:25:59.494Z,85.68
2023-05-05T03:26:59.511Z,85.27
2023-05-05T03:27:59.354Z,85.06
2023-05-05T03:28:59.511Z,84.86
2023-05-05T03:29:59.349Z,84.96
2023-05-05T03:30:59.439Z,85.06
2023-05-05T03:31:59.360Z,85.37
2023-05-05T03:32:59.368Z,85.37
2023-05-05T03:33:59.444Z,84.96
2023-05-05T03:34:59.272Z,84.55
2023-05-05T03:35:59.492Z,84.34
2023-05-05T03:36:59.265Z,84.66
2023-05-05T03:37:59.482Z,84.86
2023-05-05T03:38:59.252Z,85.27
2023-05-05T03:39:59.282Z,85.13
2023-05-05T03:40:59.232Z,85.06
2023-05-05T03:41:59.437Z,85.13
2023-05-05T03:42:59.175Z,85.22
2023-05-05T03:43:59.292Z,85.33
2023-05-05T03:44:59.138Z,85.06
2023-05-05T03:45:59.290Z,84.82
2023-05-05T03:46:59.144Z,84.72
2023-05-05T03:47:59.286Z,85.33
2023-05-05T03:48:59.081Z,85.33
2023-05-05T03:49:59.238Z,85.22
2023-05-05T03:50:59.102Z,85.22
2023-05-05T03:51:59.167Z,85.33
2023-05-05T03:52:59.312Z,84.92
2023-05-05T03:53:59.007Z,84.31
2023-05-05T03:54:59.280Z,84.20
2023-05-05T03:55:59.006Z,84.00
2023-05-05T03:56:59.147Z,83.65
2023-05-05T03:57:59.100Z,83.15
2023-05-05T03:58:58.998Z,84.17
2023-05-05T03:59:59.101Z,83.96
2023-05-05T04:00:58.962Z,83.96
2023-05-05T04:01:59.173Z,84.78
2023-05-05T04:02:59.035Z,84.67
2023-05-05T04:03:59.096Z,83.76
2023-05-05T04:04:58.902Z,83.25
2023-05-05T04:05:59.053Z,84.53
2023-05-05T04:06:58.873Z,83.72
2023-05-05T04:07:59.115Z,84.33
2023-05-05T04:08:58.832Z,83.92
2023-05-05T04:09:58.985Z,83.01
2023-05-05T04:10:58.816Z,83.11
2023-05-05T04:11:58.978Z,83.21
2023-05-05T04:12:58.856Z,83.51
2023-05-05T04:13:58.911Z,83.62
2023-05-05T04:14:58.802Z,83.11
2023-05-05T04:15:58.988Z,84.12
2023-05-05T04:16:58.750Z,84.33
2023-05-05T04:17:58.971Z,84.64
2023-05-05T04:18:58.968Z,84.64
2023-05-05T04:19:58.728Z,84.64
2023-05-05T04:20:59.025Z,84.33
2023-05-05T04:21:58.723Z,84.33
2023-05-05T04:22:58.801Z,84.23
2023-05-05T04:23:58.639Z,84.53
2023-05-05T04:24:58.822Z,84.23
2023-05-05T04:25:58.609Z,84.43
2023-05-05T04:26:58.847Z,84.84
2023-05-05T04:27:58.611Z,84.64
2023-05-05T04:28:58.714Z,84.23
2023-05-05T04:29:58.566Z,84.03
2023-05-05T04:30:58.827Z,84.84
2023-05-05T04:31:58.582Z,85.75
2023-05-05T04:32:58.689Z,84.94
2023-05-05T04:33:58.560Z,84.94
2023-05-05T04:34:58.717Z,84.64
2023-05-05T04:35:58.482Z,83.92
2023-05-05T04:36:58.662Z,83.51
2023-05-05T04:37:58.455Z,83.31
2023-05-05T04:38:58.646Z,83.17
2023-05-05T04:39:58.441Z,82.97
2023-05-05T04:40:58.645Z,82.56
2023-05-05T04:41:58.450Z,82.87
2023-05-05T04:42:58.608Z,82.56
2023-05-05T04:43:58.391Z,82.35
2023-05-05T04:44:58.525Z,82.26
2023-05-05T04:45:58.393Z,82.76
2023-05-05T04:46:58.653Z,83.27
2023-05-05T04:47:58.379Z,83.37
2023-05-05T04:48:58.946Z,83.13
2023-05-05T04:49:58.971Z,83.34
2023-05-05T04:50:58.343Z,82.93
2023-05-05T04:51:58.547Z,82.32
2023-05-05T04:52:58.361Z,82.93
2023-05-05T04:53:58.455Z,82.32
2023-05-05T04:54:58.390Z,82.42
2023-05-05T04:55:58.233Z,82.32
2023-05-05T04:56:58.403Z,82.12
2023-05-05T04:57:58.257Z,81.98
2023-05-05T04:58:58.357Z,82.18
2023-05-05T04:59:58.197Z,83.09
2023-05-05T05:00:58.368Z,81.77
2023-05-05T05:02:51.199Z,83.20
2023-05-05T05:03:52.221Z,83.60
2023-05-05T05:04:52.185Z,83.29
2023-05-05T05:05:51.941Z,83.20
2023-05-05T05:06:52.057Z,83.29
2023-05-05T05:07:51.964Z,83.29
2023-05-05T05:08:52.217Z,82.79
2023-05-05T05:09:51.896Z,82.68
2023-05-05T05:10:52.161Z,82.18
2023-05-05T05:11:51.881Z,82.28
2023-05-05T05:12:52.057Z,82.79
2023-05-05T05:13:51.926Z,82.48
2023-05-05T05:14:52.070Z,83.09
2023-05-05T05:15:52.011Z,81.98
2023-05-05T05:16:51.958Z,82.28
2023-05-05T05:17:52.059Z,81.98
2023-05-05T05:18:51.842Z,82.89
2023-05-05T05:19:51.980Z,83.09
2023-05-05T05:20:51.757Z,82.07
2023-05-05T05:21:51.946Z,81.67
2023-05-05T05:22:51.762Z,81.77
2023-05-05T05:23:51.840Z,81.93
2023-05-05T05:24:51.718Z,81.53
2023-05-05T05:25:51.914Z,82.04
2023-05-05T05:26:51.696Z,82.04
2023-05-05T05:28:02.316Z,81.93
2023-05-05T05:28:51.706Z,82.24
2023-05-05T05:29:51.748Z,82.45
2023-05-05T05:30:51.637Z,82.14
2023-05-05T05:31:51.695Z,81.63
2023-05-05T05:32:51.608Z,81.12
2023-05-05T05:33:51.708Z,81.43
2023-05-05T05:34:51.617Z,82.34
2023-05-05T05:35:51.715Z,81.29
2023-05-05T05:36:51.724Z,81.59
2023-05-05T05:37:51.519Z,82.61
2023-05-05T05:38:51.632Z,82.51
2023-05-05T05:39:51.561Z,82.92
2023-05-05T05:40:51.741Z,82.92
2023-05-05T05:41:51.645Z,81.79
2023-05-05T05:42:51.507Z,81.90
2023-05-05T05:43:51.553Z,81.19
2023-05-05T05:44:51.509Z,81.59
2023-05-05T05:45:51.777Z,81.79
2023-05-05T05:46:51.462Z,81.49
2023-05-05T05:47:51.528Z,81.59
2023-05-05T05:48:51.418Z,81.86
2023-05-05T05:49:51.529Z,81.56
2023-05-05T05:50:51.426Z,81.96
2023-05-05T05:51:51.402Z,81.66
2023-05-05T05:52:51.394Z,81.52
2023-05-05T05:53:51.431Z,81.01
2023-05-05T05:54:51.321Z,80.71
2023-05-05T05:55:51.406Z,80.30
2023-05-05T05:56:51.290Z,79.75
2023-05-05T05:57:51.335Z,79.14
2023-05-05T05:58:51.254Z,78.84
2023-05-05T05:59:51.381Z,79.11
2023-05-05T06:00:51.469Z,78.40
2023-05-05T06:01:51.419Z,78.19
2023-05-05T06:02:51.709Z,77.95
2023-05-05T06:03:51.374Z,76.94
2023-05-05T06:04:51.212Z,76.50
2023-05-05T06:05:51.204Z,76.20
2023-05-05T06:06:51.258Z,78.12
2023-05-05T06:07:51.144Z,78.59
2023-05-05T06:08:51.158Z,78.28
2023-05-05T06:09:51.105Z,78.19
2023-05-05T06:10:51.230Z,77.88
2023-05-05T06:11:51.074Z,77.14
2023-05-05T06:12:51.305Z,77.34
2023-05-05T06:13:51.060Z,77.64
2023-05-05T06:14:51.140Z,77.24
2023-05-05T06:15:51.087Z,77.44
2023-05-05T06:16:51.091Z,77.20
2023-05-05T06:17:51.111Z,78.01
2023-05-05T06:18:51.031Z,75.89
2023-05-05T06:19:52.411Z,75.34
2023-05-05T06:20:50.991Z,75.04
2023-05-05T06:21:50.999Z,75.34
2023-05-05T06:22:51.057Z,75.61
2023-05-05T06:23:50.935Z,77.33
2023-05-05T06:24:51.118Z,77.53
2023-05-05T06:25:50.891Z,77.03
2023-05-05T06:26:51.039Z,78.14
2023-05-05T06:27:50.854Z,76.93
2023-05-05T06:28:51.049Z,76.32
2023-05-05T06:29:50.872Z,76.28
2023-05-05T06:30:50.960Z,76.89
2023-05-05T06:31:51.097Z,77.29
2023-05-05T06:32:50.901Z,76.48
2023-05-05T06:33:50.846Z,75.78
2023-05-05T06:34:50.827Z,75.07
2023-05-05T06:35:50.753Z,75.37
2023-05-05T06:36:50.829Z,75.07
2023-05-05T06:37:50.736Z,75.37
2023-05-05T06:38:50.885Z,75.37
2023-05-05T06:39:50.751Z,76.08
2023-05-05T06:40:50.850Z,74.77
2023-05-05T06:41:50.884Z,75.68
2023-05-05T06:42:50.892Z,75.98
2023-05-05T06:43:50.678Z,74.97
2023-05-05T06:44:50.785Z,74.87
2023-05-05T06:45:50.711Z,75.27
2023-05-05T06:46:50.817Z,75.68
2023-05-05T06:47:50.825Z,75.13
2023-05-05T06:48:50.848Z,74.53
2023-05-05T06:49:50.683Z,74.63
2023-05-05T06:50:50.765Z,75.04
2023-05-05T06:51:50.676Z,73.89
2023-05-05T06:52:50.704Z,73.38
2023-05-05T06:53:50.729Z,73.49
2023-05-05T06:54:50.580Z,73.69
2023-05-05T06:55:50.842Z,73.18
2023-05-05T06:56:50.570Z,72.75
2023-05-05T06:57:50.625Z,72.95
2023-05-05T06:58:50.695Z,72.75
2023-05-05T06:59:50.699Z,72.34
2023-05-05T07:00:50.622Z,71.84
2023-05-05T07:01:50.485Z,71.94
2023-05-05T07:02:50.611Z,71.80
2023-05-05T07:03:50.500Z,72.20
2023-05-05T07:04:50.855Z,71.50
2023-05-05T07:05:50.505Z,71.00
2023-05-05T07:06:50.407Z,71.10
2023-05-05T07:07:50.462Z,69.48
2023-05-05T07:08:50.432Z,70.49
2023-05-05T07:09:50.487Z,70.89
2023-05-05T07:10:50.382Z,71.00
2023-05-05T07:11:50.425Z,70.59
2023-05-05T07:12:50.870Z,69.18
2023-05-05T07:13:50.438Z,69.68
2023-05-05T07:14:50.332Z,69.18
2023-05-05T07:15:50.460Z,69.59
2023-05-05T07:16:50.368Z,71.00
2023-05-05T07:17:50.557Z,70.29
2023-05-05T07:18:50.332Z,70.39
2023-05-05T07:19:50.349Z,71.30
2023-05-05T07:20:50.260Z,71.40
2023-05-05T07:21:50.325Z,71.50
2023-05-05T07:22:50.612Z,71.60
2023-05-05T07:23:50.332Z,71.30
2023-05-05T07:24:51.737Z,71.00
2023-05-05T07:25:50.575Z,71.40
2023-05-05T07:26:50.192Z,72.00
2023-05-05T07:27:50.227Z,73.01
2023-05-05T07:28:50.288Z,72.41
2023-05-05T07:29:50.370Z,72.31
2023-05-05T07:30:50.486Z,72.11
2023-05-05T07:31:50.788Z,72.20
2023-05-05T07:32:50.418Z,71.84
2023-05-05T07:33:50.299Z,71.64
2023-05-05T07:34:50.154Z,72.14
2023-05-05T07:35:50.125Z,72.54
2023-05-05T07:36:50.257Z,73.25
2023-05-05T07:37:50.082Z,72.85
2023-05-05T07:38:50.041Z,72.38
2023-05-05T07:39:50.112Z,72.58
2023-05-05T07:40:50.244Z,72.78
2023-05-05T07:41:49.943Z,72.88
2023-05-05T07:42:50.007Z,74.60
2023-05-05T07:43:50.012Z,72.98
2023-05-05T07:44:50.046Z,73.49
2023-05-05T07:45:50.163Z,73.93
2023-05-05T07:46:50.041Z,74.22
2023-05-05T07:47:49.930Z,74.22
2023-05-05T07:48:49.930Z,74.43
2023-05-05T07:49:49.804Z,74.63
2023-05-05T07:50:50.308Z,75.44
2023-05-05T07:51:50.323Z,75.34
2023-05-05T07:52:56.400Z,75.64
2023-05-05T07:53:50.315Z,75.84
2023-05-05T07:54:49.843Z,76.25
2023-05-05T07:55:50.434Z,75.95
2023-05-05T07:56:49.915Z,75.44
2023-05-05T07:57:49.747Z,75.95
2023-05-05T07:58:49.889Z,76.65
2023-05-05T07:59:49.780Z,76.04
2023-05-05T08:00:49.996Z,76.95
2023-05-05T08:01:49.810Z,76.31
2023-05-05T08:02:50.107Z,75.91
2023-05-05T08:03:49.816Z,75.60
2023-05-05T08:04:49.946Z,75.40
2023-05-05T08:05:51.717Z,75.20
2023-05-05T08:06:49.734Z,75.31
2023-05-05T08:07:49.811Z,74.80
2023-05-05T08:08:49.725Z,73.99
2023-05-05T08:09:49.815Z,73.89
2023-05-05T08:10:49.864Z,74.29
2023-05-05T08:11:49.980Z,73.79
2023-05-05T08:12:49.785Z,73.18
2023-05-05T08:13:49.639Z,72.27
2023-05-05T08:14:49.866Z,72.58
2023-05-05T08:15:49.928Z,72.58
2023-05-05T08:16:49.566Z,72.44
2023-05-05T08:17:49.609Z,72.75
2023-05-05T08:18:49.448Z,71.84
2023-05-05T08:19:49.590Z,71.94
2023-05-05T08:20:49.614Z,71.84
2023-05-05T08:21:49.947Z,71.84
2023-05-05T08:22:49.980Z,72.24
2023-05-05T08:23:49.806Z,72.04
2023-05-05T08:24:49.708Z,72.85
2023-05-05T08:25:49.718Z,72.04
2023-05-05T08:26:49.397Z,72.34
2023-05-05T08:27:49.646Z,72.54
2023-05-05T08:28:49.395Z,72.85
2023-05-05T08:29:49.324Z,73.96
2023-05-05T08:30:49.333Z,73.45
2023-05-05T08:31:49.345Z,73.45
2023-05-05T08:32:49.325Z,73.75
2023-05-05T08:33:49.248Z,74.56
2023-05-05T08:34:49.445Z,74.56
2023-05-05T08:35:49.322Z,75.31
2023-05-05T08:36:49.399Z,75.91
2023-05-05T08:37:49.369Z,76.42
2023-05-05T08:38:49.259Z,75.71
2023-05-05T08:39:49.210Z,75.60
2023-05-05T08:40:49.303Z,76.62
2023-05-05T08:41:49.202Z,76.72
2023-05-05T08:42:49.285Z,76.62
2023-05-05T08:43:49.157Z,76.51
2023-05-05T08:44:49.244Z,76.42
2023-05-05T08:45:49.178Z,77.22
2023-05-05T08:46:49.190Z,78.43
2023-05-05T08:47:49.257Z,78.74
2023-05-05T08:48:49.276Z,78.74
2023-05-05T08:49:49.111Z,79.54
2023-05-05T08:50:49.096Z,80.01
2023-05-05T08:51:48.990Z,80.51
2023-05-05T08:52:51.261Z,80.82
2023-05-05T08:53:49.335Z,80.38
2023-05-05T08:54:49.355Z,81.79
2023-05-05T08:55:48.998Z,81.38
2023-05-05T08:56:49.218Z,79.97
2023-05-05T08:57:48.928Z,80.68
2023-05-05T08:58:48.989Z,80.78
2023-05-05T08:59:48.914Z,80.94
2023-05-05T09:00:49.169Z,79.33
2023-05-05T09:01:49.004Z,79.23
2023-05-05T09:02:49.088Z,78.12
2023-05-05T09:03:49.766Z,79.43
2023-05-05T09:04:49.074Z,79.33
2023-05-05T09:05:48.983Z,79.23
2023-05-05T09:06:49.144Z,78.16
2023-05-05T09:07:48.823Z,79.57
2023-05-05T09:08:48.957Z,80.54
2023-05-05T09:09:48.766Z,80.58
2023-05-05T09:10:48.874Z,80.94
2023-05-05T09:11:48.826Z,81.75
2023-05-05T09:12:49.008Z,81.04
2023-05-05T09:13:48.799Z,79.16
2023-05-05T09:14:48.947Z,79.36
2023-05-05T09:15:48.903Z,79.77
2023-05-05T09:16:48.879Z,79.57
2023-05-05T09:17:48.835Z,78.72
2023-05-05T09:18:48.849Z,78.52
2023-05-05T09:19:48.647Z,77.31
2023-05-05T09:20:48.853Z,75.60
2023-05-05T09:21:48.863Z,76.40
2023-05-05T09:22:48.800Z,76.81
2023-05-05T09:23:48.804Z,77.82
2023-05-05T09:24:49.413Z,78.02
2023-05-05T09:25:50.129Z,78.12
2023-05-05T09:26:48.748Z,77.28
2023-05-05T09:27:48.891Z,77.17
2023-05-05T09:28:48.514Z,76.87
2023-05-05T09:29:48.978Z,76.94
2023-05-05T09:30:48.811Z,77.04
2023-05-05T09:31:49.438Z,76.40
2023-05-05T09:32:49.062Z,76.56
2023-05-05T09:33:49.564Z,76.46
2023-05-05T09:34:48.625Z,75.62
2023-05-05T09:35:48.836Z,74.82
2023-05-05T09:36:48.773Z,74.08
2023-05-05T09:37:48.682Z,72.77
2023-05-05T09:38:48.639Z,72.27
2023-05-05T09:39:48.430Z,71.94
2023-05-05T09:40:48.585Z,70.73
2023-05-05T09:41:48.405Z,71.63
2023-05-05T09:42:48.731Z,68.92
2023-05-05T09:43:48.366Z,70.16
2023-05-05T09:44:48.346Z,70.96
2023-05-05T09:45:48.325Z,70.66
2023-05-05T09:46:48.397Z,69.92
2023-05-05T09:47:48.348Z,70.70
2023-05-05T09:48:48.359Z,69.99
2023-05-05T09:49:48.372Z,70.86
2023-05-05T09:50:48.387Z,69.02
2023-05-05T09:51:48.217Z,68.52
2023-05-05T09:52:48.397Z,67.88
2023-05-05T09:53:48.508Z,68.89
2023-05-05T09:54:48.319Z,67.96
2023-05-05T09:55:48.322Z,66.85
2023-05-05T09:56:48.237Z,70.46
2023-05-05T09:57:48.268Z,68.35
2023-05-05T09:58:48.383Z,67.25
2023-05-05T09:59:48.151Z,65.55
2023-05-05T10:00:48.159Z,66.25
2023-05-05T10:01:48.214Z,65.65
2023-05-05T10:02:48.388Z,64.34
2023-05-05T10:03:48.159Z,65.35
2023-05-05T10:04:48.112Z,64.65
2023-05-05T10:05:48.093Z,64.84
2023-05-05T10:06:48.323Z,66.75
2023-05-05T10:07:48.393Z,65.42
2023-05-05T10:08:48.052Z,64.62
2023-05-05T10:09:48.221Z,64.12
2023-05-05T10:10:47.944Z,64.72
2023-05-05T10:11:48.193Z,64.42
2023-05-05T10:12:48.012Z,62.92
2023-05-05T10:13:48.913Z,63.84
2023-05-05T10:14:47.968Z,65.72
2023-05-05T10:15:48.138Z,64.12
2023-05-05T10:16:47.938Z,65.01
2023-05-05T10:18:05.077Z,64.72
2023-05-05T10:18:47.969Z,63.92
2023-05-05T10:19:47.995Z,64.62
2023-05-05T10:20:47.921Z,66.52
2023-05-05T10:21:47.950Z,65.82
2023-05-05T10:22:47.818Z,67.22
2023-05-05T10:23:47.912Z,67.32
2023-05-05T10:24:47.979Z,67.82
2023-05-05T10:25:47.825Z,67.79
2023-05-05T10:26:47.892Z,67.59
2023-05-05T10:27:47.768Z,67.86
2023-05-05T10:28:47.861Z,66.86
2023-05-05T10:29:48.032Z,65.05
2023-05-05T10:30:47.821Z,66.93
2023-05-05T10:31:47.838Z,67.02
2023-05-05T10:32:59.849Z,66.72
2023-05-05T10:33:47.787Z,67.43
2023-05-05T10:34:47.780Z,65.49
2023-05-05T10:35:47.655Z,67.79
2023-05-05T10:36:47.856Z,65.59
2023-05-05T10:37:47.738Z,63.59
2023-05-05T10:38:47.794Z,62.49
2023-05-05T10:39:47.597Z,63.42
2023-05-05T10:40:47.645Z,64.29
2023-05-05T10:41:47.579Z,63.49
2023-05-05T10:42:47.647Z,63.59
2023-05-05T10:43:47.577Z,64.69
2023-05-05T10:44:47.729Z,65.09
2023-05-05T10:45:47.606Z,64.19
2023-05-05T10:46:47.690Z,64.89
2023-05-05T10:47:47.656Z,63.79
2023-05-05T10:48:47.702Z,65.29
2023-05-05T10:49:47.487Z,62.49
2023-05-05T10:50:47.688Z,61.72
2023-05-05T10:51:47.459Z,61.32
2023-05-05T10:52:47.555Z,60.82
2023-05-05T10:53:47.490Z,60.85
2023-05-05T10:54:47.489Z,61.92
2023-05-05T10:55:47.396Z,61.32
2023-05-05T10:56:47.419Z,62.89
2023-05-05T10:57:47.495Z,63.49
2023-05-05T10:58:59.237Z,62.29
2023-05-05T10:59:47.412Z,62.79
2023-05-05T11:00:47.490Z,61.99
2023-05-05T11:01:47.346Z,62.89
2023-05-05T11:02:47.372Z,63.69
2023-05-05T11:03:47.451Z,63.56
2023-05-05T11:04:47.541Z,62.16
2023-05-05T11:05:47.361Z,59.69
2023-05-05T11:06:47.318Z,61.59
2023-05-05T11:07:47.439Z,61.49
2023-05-05T11:08:47.433Z,61.46
2023-05-05T11:09:47.626Z,63.26
2023-05-05T11:10:47.501Z,61.36
2023-05-05T11:11:47.373Z,61.76
2023-05-05T11:12:48.390Z,63.76
2023-05-05T11:13:47.940Z,65.06
2023-05-05T11:14:47.311Z,64.46
2023-05-05T11:15:47.458Z,63.17
2023-05-05T11:16:47.486Z,62.37
2023-05-05T11:17:47.500Z,59.06
2023-05-05T11:18:47.337Z,61.57
2023-05-05T11:19:47.301Z,60.77
2023-05-05T11:20:48.085Z,61.36
2023-05-05T11:21:47.509Z,61.26
2023-05-05T11:22:47.441Z,58.37
2023-05-05T11:23:47.074Z,58.47
2023-05-05T11:24:47.266Z,61.46
2023-05-05T11:25:47.287Z,63.46
2023-05-05T11:26:47.177Z,63.46
2023-05-05T11:27:47.228Z,63.46
2023-05-05T11:28:47.117Z,65.06
2023-05-05T11:29:47.016Z,60.86
2023-05-05T11:30:47.136Z,60.57
2023-05-05T11:31:47.003Z,60.16
2023-05-05T11:32:47.124Z,61.09
2023-05-05T11:33:46.940Z,60.66
2023-05-05T11:34:46.980Z,63.26
2023-05-05T11:35:46.968Z,58.64
2023-05-05T11:36:46.955Z,59.66
2023-05-05T11:37:46.877Z,59.27
2023-05-05T11:38:46.983Z,60.16
2023-05-05T11:39:47.540Z,63.96
2023-05-05T11:40:47.023Z,62.04
2023-05-05T11:41:46.912Z,62.83
2023-05-05T11:42:46.950Z,62.83
2023-05-05T11:43:46.821Z,62.81
2023-05-05T11:44:46.834Z,65.50
2023-05-05T11:45:46.829Z,62.67
2023-05-05T11:46:46.915Z,63.97
2023-05-05T11:47:46.885Z,62.15
2023-05-05T11:48:46.881Z,64.64
2023-05-05T11:49:46.762Z,63.11
2023-05-05T11:50:46.894Z,59.82
2023-05-05T11:51:46.735Z,60.62
2023-05-05T11:52:46.788Z,58.83
2023-05-05T11:53:46.705Z,57.03
2023-05-05T11:54:46.828Z,57.93
2023-05-05T11:55:46.679Z,58.70
2023-05-05T11:56:46.762Z,57.40
2023-05-05T11:57:46.671Z,57.00
2023-05-05T11:58:47.047Z,58.29
2023-05-05T11:59:49.425Z,56.21
2023-05-05T12:00:46.562Z,56.40
2023-05-05T12:01:46.852Z,57.10
2023-05-05T12:02:46.691Z,55.91
2023-05-05T12:03:46.832Z,54.74
2023-05-05T12:04:46.550Z,53.84
2023-05-05T12:05:46.735Z,52.97
2023-05-05T12:06:46.604Z,54.34
2023-05-05T12:07:47.281Z,56.73
2023-05-05T12:08:46.888Z,57.23
2023-05-05T12:09:46.992Z,58.23
2023-05-05T12:10:46.495Z,56.93
2023-05-05T12:11:46.571Z,58.03
2023-05-05T12:12:46.591Z,57.63
2023-05-05T12:13:46.713Z,58.53
2023-05-05T12:14:46.487Z,57.03
2023-05-05T12:15:46.489Z,55.06
2023-05-05T12:16:46.377Z,55.06
2023-05-05T12:17:46.563Z,57.06
2023-05-05T12:18:46.608Z,54.89
2023-05-05T12:19:46.735Z,55.58
2023-05-05T12:20:46.432Z,54.99
2023-05-05T12:21:46.492Z,55.99
2023-05-05T12:22:46.381Z,56.88
2023-05-05T12:23:46.450Z,57.88
2023-05-05T12:24:46.349Z,56.88
2023-05-05T12:25:46.356Z,57.56
2023-05-05T12:26:46.249Z,55.46
2023-05-05T12:27:46.430Z,54.59
2023-05-05T12:28:46.226Z,54.59
2023-05-05T12:29:46.419Z,55.69
2023-05-05T12:30:46.237Z,56.48
2023-05-05T12:31:46.795Z,57.68
2023-05-05T12:32:46.340Z,59.45
2023-05-05T12:33:46.343Z,57.86
2023-05-05T12:34:46.196Z,57.93
2023-05-05T12:35:46.506Z,60.52
2023-05-05T12:36:46.173Z,59.59
2023-05-05T12:37:46.807Z,56.60
2023-05-05T12:38:46.134Z,55.11
2023-05-05T12:39:47.216Z,56.51
2023-05-05T12:40:46.193Z,59.69
2023-05-05T12:41:46.375Z,58.07
2023-05-05T12:42:46.519Z,57.28
2023-05-05T12:43:46.157Z,54.81
2023-05-05T12:44:46.141Z,55.01
2023-05-05T12:45:46.267Z,53.91
2023-05-05T12:46:46.936Z,55.11
2023-05-05T12:47:46.103Z,54.53
2023-05-05T12:48:48.290Z,55.93
2023-05-05T12:49:46.090Z,57.03
2023-05-05T12:50:46.081Z,58.53
2023-05-05T12:51:46.189Z,57.26
2023-05-05T12:52:45.965Z,55.36